createdAt,value
2022-12-17T00:00:41.882Z,-3.49
2022-12-17T00:03:29.734Z,-3.39
2022-12-17T00:06:15.348Z,-3.41
2022-12-17T00:09:00.940Z,-3.36
2022-12-17T00:11:46.427Z,-3.32
2022-12-17T00:14:32.027Z,-3.39
2022-12-17T00:17:17.576Z,-3.31
2022-12-17T00:20:03.148Z,-3.22
2022-12-17T00:22:48.740Z,-3.31
2022-12-17T00:25:34.215Z,-3.20
2022-12-17T00:28:19.910Z,-3.30
2022-12-17T00:31:14.524Z,-3.26
2022-12-17T00:34:00.233Z,-3.32
2022-12-17T00:36:46.372Z,-3.23
2022-12-17T00:39:32.069Z,-3.39
2022-12-17T00:42:17.547Z,-3.44
2022-12-17T00:45:03.303Z,-3.32
2022-12-17T00:47:48.904Z,-3.37
2022-12-17T00:50:36.059Z,-3.45
2022-12-17T00:53:21.701Z,-3.51
2022-12-17T00:56:07.126Z,-3.53
2022-12-17T00:58:52.716Z,-3.53
2022-12-17T01:01:38.483Z,-3.58
2022-12-17T01:04:24.170Z,-3.53
2022-12-17T01:07:10.055Z,-3.51
2022-12-17T01:09:55.615Z,-3.29
2022-12-17T01:12:41.635Z,-3.47
2022-12-17T01:15:27.281Z,-3.66
2022-12-17T01:18:12.881Z,-3.46
2022-12-17T01:20:58.474Z,-3.57
2022-12-17T01:23:44.546Z,-3.65
2022-12-17T01:26:30.275Z,-3.67
2022-12-17T01:29:16.747Z,-3.53
2022-12-17T01:32:02.465Z,-3.70
2022-12-17T01:34:48.327Z,-3.62
2022-12-17T01:37:33.939Z,-3.80
2022-12-17T01:40:19.480Z,-3.79
2022-12-17T01:43:05.710Z,-3.61
2022-12-17T01:46:03.143Z,-3.52
2022-12-17T01:49:03.530Z,-3.37
2022-12-17T01:51:49.498Z,-3.26
2022-12-17T01:54:37.261Z,-3.42
2022-12-17T01:57:25.016Z,-3.56
2022-12-17T02:00:26.812Z,-3.35
2022-12-17T02:03:12.476Z,-3.50
2022-12-17T02:06:05.118Z,-3.63
2022-12-17T02:08:55.254Z,-3.74
2022-12-17T02:11:55.057Z,-3.65
2022-12-17T02:15:03.407Z,-3.67
2022-12-17T02:18:02.638Z,-3.83
2022-12-17T02:20:58.060Z,-3.91
2022-12-17T02:23:49.757Z,-4.17
2022-12-17T02:27:10.200Z,-3.98
2022-12-17T02:30:08.646Z,-3.80
2022-12-17T02:32:56.653Z,-3.86
2022-12-17T02:36:03.413Z,-3.65
2022-12-17T02:38:51.399Z,-3.71
2022-12-17T02:41:48.107Z,-3.78
2022-12-17T02:44:37.981Z,-3.71
2022-12-17T02:47:27.343Z,-3.66
2022-12-17T02:50:13.364Z,-3.76
2022-12-17T02:53:04.941Z,-3.75
2022-12-17T02:55:50.977Z,-3.65
2022-12-17T02:58:36.748Z,-3.73
2022-12-17T03:01:22.760Z,-3.53
2022-12-17T03:04:08.318Z,-3.64
2022-12-17T03:06:53.866Z,-3.57
2022-12-17T03:09:39.524Z,-3.43
2022-12-17T03:12:25.593Z,-3.64
2022-12-17T03:15:11.327Z,-3.61
2022-12-17T03:17:56.913Z,-3.44
2022-12-17T03:20:42.692Z,-3.60
2022-12-17T03:23:30.129Z,-3.67
2022-12-17T03:26:20.264Z,-3.72
2022-12-17T03:29:06.251Z,-3.78
2022-12-17T03:31:52.375Z,-3.88
2022-12-17T03:34:37.954Z,-4.00
2022-12-17T03:37:23.709Z,-4.00
2022-12-17T03:40:09.130Z,-3.87
2022-12-17T03:42:54.762Z,-3.89
2022-12-17T03:45:40.377Z,-4.09
2022-12-17T03:48:28.449Z,-4.03
2022-12-17T03:51:14.521Z,-4.05
2022-12-17T03:54:00.601Z,-4.07
2022-12-17T03:56:47.259Z,-3.92
2022-12-17T03:59:32.850Z,-3.89
2022-12-17T04:02:18.571Z,-3.87
2022-12-17T04:05:04.302Z,-3.81
2022-12-17T04:07:49.862Z,-4.06
2022-12-17T04:10:35.755Z,-3.87
2022-12-17T04:13:41.663Z,-4.04
2022-12-17T04:16:27.932Z,-3.96
2022-12-17T04:19:13.451Z,-3.90
2022-12-17T04:21:59.249Z,-3.97
2022-12-17T04:24:46.667Z,-4.03
2022-12-17T04:27:32.547Z,-3.85
2022-12-17T04:30:18.057Z,-3.76
2022-12-17T04:33:03.944Z,-3.71
2022-12-17T04:35:49.562Z,-3.73
2022-12-17T04:38:35.555Z,-3.68
2022-12-17T04:41:21.237Z,-3.64
2022-12-17T04:44:06.803Z,-3.72
2022-12-17T04:47:03.068Z,-3.72
2022-12-17T04:49:48.893Z,-4.06
2022-12-17T04:52:34.557Z,-3.93
2022-12-17T04:55:20.528Z,-3.83
2022-12-17T04:58:06.150Z,-3.67
2022-12-17T05:00:51.556Z,-3.63
2022-12-17T05:03:37.854Z,-3.80
2022-12-17T05:06:24.260Z,-3.91
2022-12-17T05:09:09.901Z,-3.77
2022-12-17T05:11:55.767Z,-3.66
2022-12-17T05:14:41.422Z,-3.76
2022-12-17T05:17:27.611Z,-3.84
2022-12-17T05:20:13.373Z,-3.88
2022-12-17T05:22:58.983Z,-3.93
2022-12-17T05:25:44.767Z,-3.87
2022-12-17T05:28:30.507Z,-3.91
2022-12-17T05:31:16.075Z,-3.77
2022-12-17T05:34:02.115Z,-4.14
2022-12-17T05:36:47.560Z,-4.01
2022-12-17T05:39:33.248Z,-3.86
2022-12-17T05:42:18.834Z,-3.72
2022-12-17T05:45:04.523Z,-4.14
2022-12-17T05:47:50.133Z,-4.07
2022-12-17T05:50:35.654Z,-4.11
2022-12-17T05:53:25.236Z,-4.27
2022-12-17T05:56:11.411Z,-4.28
2022-12-17T05:58:57.883Z,-4.38
2022-12-17T06:01:44.554Z,-4.42
2022-12-17T06:04:30.196Z,-4.34
2022-12-17T06:07:15.694Z,-4.44
2022-12-17T06:10:01.181Z,-4.37
2022-12-17T06:12:46.655Z,-4.33
2022-12-17T06:15:32.285Z,-4.10
2022-12-17T06:18:17.978Z,-4.25
2022-12-17T06:21:04.271Z,-4.42
2022-12-17T06:23:49.915Z,-4.32
2022-12-17T06:26:35.611Z,-4.43
2022-12-17T06:29:21.227Z,-4.26
2022-12-17T06:32:06.862Z,-4.46
2022-12-17T06:34:52.300Z,-4.28
2022-12-17T06:37:38.036Z,-4.20
2022-12-17T06:40:24.104Z,-4.19
2022-12-17T06:43:14.105Z,-4.19
2022-12-17T06:46:00.286Z,-4.06
2022-12-17T06:48:45.971Z,-4.37
2022-12-17T06:51:31.758Z,-4.33
2022-12-17T06:54:17.515Z,-4.16
2022-12-17T06:57:03.213Z,-4.34
2022-12-17T06:59:49.135Z,-4.36
2022-12-17T07:02:35.016Z,-4.42
2022-12-17T07:05:20.963Z,-4.27
2022-12-17T07:08:14.987Z,-4.32
2022-12-17T07:11:00.649Z,-4.26
2022-12-17T07:13:46.759Z,-4.76
2022-12-17T07:16:32.360Z,-4.40
2022-12-17T07:19:20.460Z,-4.40
2022-12-17T07:22:09.540Z,-4.37
2022-12-17T07:24:55.872Z,-4.22
2022-12-17T07:27:41.395Z,-4.27
2022-12-17T07:30:27.990Z,-4.11
2022-12-17T07:33:21.579Z,-4.17
2022-12-17T07:36:07.470Z,-4.40
2022-12-17T07:38:53.122Z,-4.31
2022-12-17T07:41:38.763Z,-4.22
2022-12-17T07:44:24.331Z,-4.10
2022-12-17T07:47:09.840Z,-4.09
2022-12-17T07:49:55.431Z,-4.18
2022-12-17T07:52:41.002Z,-3.98
2022-12-17T07:55:27.310Z,-3.80
2022-12-17T07:58:23.722Z,-4.23
2022-12-17T08:01:09.271Z,-3.86
2022-12-17T08:03:54.873Z,-3.79
2022-12-17T08:06:40.431Z,-3.57
2022-12-17T08:09:26.341Z,-3.78
2022-12-17T08:12:11.749Z,-4.19
2022-12-17T08:14:57.439Z,-4.01
2022-12-17T08:17:43.188Z,-4.06
2022-12-17T08:20:29.437Z,-4.04
2022-12-17T08:23:24.505Z,-4.05
2022-12-17T08:26:10.115Z,-4.07
2022-12-17T08:28:55.753Z,-4.11
2022-12-17T08:31:44.386Z,-4.03
2022-12-17T08:34:30.103Z,-4.00
2022-12-17T08:37:15.867Z,-4.08
2022-12-17T08:40:01.442Z,-4.09
2022-12-17T08:42:47.002Z,-3.90
2022-12-17T08:45:32.632Z,-3.83
2022-12-17T08:48:25.742Z,-3.26
2022-12-17T08:51:12.460Z,-3.00
2022-12-17T08:53:57.958Z,-2.67
2022-12-17T08:56:44.134Z,-2.83
2022-12-17T08:59:29.762Z,-2.77
2022-12-17T09:02:15.655Z,-2.82
2022-12-17T09:05:01.471Z,-2.94
2022-12-17T09:07:47.226Z,-3.38
2022-12-17T09:10:33.184Z,-3.47
2022-12-17T09:13:23.118Z,-3.23
2022-12-17T09:16:15.460Z,-3.16
2022-12-17T09:19:01.882Z,-3.05
2022-12-17T09:21:48.465Z,-3.01
2022-12-17T09:24:35.117Z,-3.28
2022-12-17T09:27:20.971Z,-3.10
2022-12-17T09:30:06.589Z,-3.05
2022-12-17T09:32:52.295Z,-3.06
2022-12-17T09:35:37.828Z,-3.40
2022-12-17T09:38:23.407Z,-3.84
2022-12-17T09:41:10.374Z,-3.87
2022-12-17T09:44:17.940Z,-3.82
2022-12-17T09:47:27.133Z,-3.80
2022-12-17T09:50:12.930Z,-3.63
2022-12-17T09:53:00.036Z,-4.17
2022-12-17T09:56:04.940Z,-4.49
2022-12-17T09:58:54.202Z,-4.01
2022-12-17T10:01:41.441Z,-3.85
2022-12-17T10:04:38.416Z,-3.87
2022-12-17T10:07:39.217Z,-3.97
2022-12-17T10:10:46.029Z,-4.10
2022-12-17T10:13:35.156Z,-3.87
2022-12-17T10:16:21.988Z,-4.01
2022-12-17T10:19:08.218Z,-4.07
2022-12-17T10:21:55.418Z,-4.13
2022-12-17T10:24:41.203Z,-4.13
2022-12-17T10:27:28.931Z,-4.19
2022-12-17T10:30:14.478Z,-4.34
2022-12-17T10:33:00.838Z,-4.06
2022-12-17T10:35:55.311Z,-4.15
2022-12-17T10:38:43.516Z,-4.53
2022-12-17T10:41:49.570Z,-4.45
2022-12-17T10:44:47.436Z,-4.44
2022-12-17T10:47:35.738Z,-4.22
2022-12-17T10:50:37.311Z,-4.31
2022-12-17T10:53:34.372Z,-4.26
2022-12-17T10:56:20.465Z,-4.45
2022-12-17T10:59:08.976Z,-4.39
2022-12-17T11:01:56.336Z,-4.24
2022-12-17T11:04:57.172Z,-3.97
2022-12-17T11:07:50.635Z,-4.07
2022-12-17T11:10:39.275Z,-4.08
2022-12-17T11:13:31.936Z,-4.40
2022-12-17T11:16:19.159Z,-4.77
2022-12-17T11:19:30.663Z,-4.52
2022-12-17T11:22:22.219Z,-4.24
2022-12-17T11:25:13.841Z,-4.38
2022-12-17T11:28:05.450Z,-4.10
2022-12-17T11:30:55.861Z,-4.15
2022-12-17T11:34:00.784Z,-4.06
2022-12-17T11:37:15.083Z,-3.76
2022-12-17T11:40:29.524Z,-4.00
2022-12-17T11:43:48.226Z,-4.24
2022-12-17T11:47:00.790Z,-3.93
2022-12-17T11:49:55.652Z,-4.10
2022-12-17T11:52:47.301Z,-3.98
2022-12-17T11:55:45.883Z,-3.74
2022-12-17T11:58:59.624Z,-4.12
2022-12-17T12:02:01.688Z,-3.89
2022-12-17T12:04:57.544Z,-4.01
2022-12-17T12:07:58.473Z,-3.80
2022-12-17T12:11:03.987Z,-3.84
2022-12-17T12:14:08.708Z,-3.93
2022-12-17T12:17:14.522Z,-3.71
2022-12-17T12:20:09.139Z,-3.81
2022-12-17T12:23:06.897Z,-3.90
2022-12-17T12:26:05.488Z,-3.87
2022-12-17T12:29:03.463Z,-3.67
2022-12-17T12:32:16.797Z,-3.76
2022-12-17T12:35:03.850Z,-3.76
2022-12-17T12:37:50.465Z,-3.68
2022-12-17T12:40:58.757Z,-3.61
2022-12-17T12:43:50.776Z,-3.91
2022-12-17T12:46:57.534Z,-4.03
2022-12-17T12:49:46.216Z,-3.83
2022-12-17T12:52:36.878Z,-3.78
2022-12-17T12:55:22.475Z,-3.75
2022-12-17T12:58:21.904Z,-4.07
2022-12-17T13:01:07.588Z,-4.11
2022-12-17T13:03:56.711Z,-4.04
2022-12-17T13:06:54.047Z,-3.81
2022-12-17T13:09:33.836Z,-4.01
2022-12-17T13:12:04.609Z,-3.75
2022-12-17T13:14:34.620Z,-3.65
2022-12-17T13:17:21.776Z,-3.76
2022-12-17T13:19:58.047Z,-4.02
2022-12-17T13:22:25.119Z,-4.04
2022-12-17T13:25:16.564Z,-4.04
2022-12-17T13:27:44.415Z,-3.71
2022-12-17T13:30:37.892Z,-3.63
2022-12-17T13:33:07.760Z,-3.68
2022-12-17T13:35:50.123Z,-3.63
2022-12-17T13:38:31.765Z,-3.58
2022-12-17T13:41:10.089Z,-3.91
2022-12-17T13:43:44.252Z,-4.00
2022-12-17T13:46:26.019Z,-3.94
2022-12-17T13:49:05.235Z,-4.05
2022-12-17T13:51:35.094Z,-4.06
2022-12-17T13:54:04.601Z,-3.72
2022-12-17T13:56:34.377Z,-3.85
2022-12-17T13:59:08.410Z,-3.63
2022-12-17T14:01:50.273Z,-3.65
2022-12-17T14:04:28.909Z,-3.61
2022-12-17T14:07:00.651Z,-3.68
2022-12-17T14:09:43.793Z,-4.02
2022-12-17T14:12:22.297Z,-3.91
2022-12-17T14:15:20.485Z,-3.96
2022-12-17T14:17:49.444Z,-3.87
2022-12-17T14:20:25.502Z,-3.83
2022-12-17T14:22:55.475Z,-4.07
2022-12-17T14:25:43.291Z,-3.88
2022-12-17T14:28:36.007Z,-4.00
2022-12-17T14:31:26.497Z,-3.74
2022-12-17T14:34:07.833Z,-3.89
2022-12-17T14:36:37.937Z,-3.80
2022-12-17T14:39:17.071Z,-3.93
2022-12-17T14:42:02.820Z,-4.04
2022-12-17T14:44:31.163Z,-4.07
2022-12-17T14:47:23.184Z,-3.84
2022-12-17T14:50:10.441Z,-3.87
2022-12-17T14:52:46.053Z,-3.71
2022-12-17T14:55:55.030Z,-3.72
2022-12-17T14:58:24.435Z,-3.93
2022-12-17T15:01:03.728Z,-3.78
2022-12-17T15:03:38.802Z,-3.88
2022-12-17T15:06:15.650Z,-3.81
2022-12-17T15:08:45.374Z,-4.06
2022-12-17T15:11:14.183Z,-4.24
2022-12-17T15:13:41.629Z,-4.18
2022-12-17T15:16:09.066Z,-4.19
2022-12-17T15:18:36.628Z,-4.21
2022-12-17T15:21:04.243Z,-4.02
2022-12-17T15:23:31.617Z,-4.49
2022-12-17T15:25:58.640Z,-4.18
2022-12-17T15:28:27.238Z,-4.07
2022-12-17T15:30:54.553Z,-4.02
2022-12-17T15:33:21.654Z,-4.08
2022-12-17T15:35:48.970Z,-4.04
2022-12-17T15:38:16.016Z,-4.21
2022-12-17T15:40:43.301Z,-4.16
2022-12-17T15:43:13.567Z,-4.19
2022-12-17T15:45:49.376Z,-4.17
2022-12-17T15:48:19.613Z,-4.27
2022-12-17T15:50:47.370Z,-4.22
2022-12-17T15:53:14.654Z,-4.26
2022-12-17T15:55:42.147Z,-4.30
2022-12-17T15:58:11.446Z,-4.22
2022-12-17T16:00:38.684Z,-4.28
2022-12-17T16:03:06.131Z,-4.18
2022-12-17T16:05:33.352Z,-4.08
2022-12-17T16:08:02.652Z,-4.28
2022-12-17T16:10:30.616Z,-4.16
2022-12-17T16:12:57.928Z,-4.34
2022-12-17T16:15:25.311Z,-4.34
2022-12-17T16:17:53.024Z,-4.27
2022-12-17T16:20:20.328Z,-4.28
2022-12-17T16:22:47.527Z,-4.31
2022-12-17T16:25:14.841Z,-4.36
2022-12-17T16:27:41.925Z,-4.36
2022-12-17T16:30:11.292Z,-4.34
2022-12-17T16:32:39.213Z,-4.27
2022-12-17T16:35:06.796Z,-4.20
2022-12-17T16:37:34.133Z,-4.39
2022-12-17T16:40:01.619Z,-4.29
2022-12-17T16:42:28.852Z,-4.29
2022-12-17T16:44:55.885Z,-4.20
2022-12-17T16:47:23.244Z,-4.12
2022-12-17T16:49:50.918Z,-4.11
2022-12-17T16:52:18.096Z,-4.19
2022-12-17T16:54:45.334Z,-4.20
2022-12-17T16:57:12.531Z,-4.35
2022-12-17T16:59:39.743Z,-4.58
2022-12-17T17:02:15.511Z,-4.62
2022-12-17T17:04:42.937Z,-4.45
2022-12-17T17:07:10.273Z,-4.20
2022-12-17T17:09:37.928Z,-4.36
2022-12-17T17:12:05.636Z,-4.50
2022-12-17T17:14:34.955Z,-4.50
2022-12-17T17:17:02.156Z,-4.30
2022-12-17T17:19:29.253Z,-4.12
2022-12-17T17:21:56.793Z,-4.06
2022-12-17T17:24:26.057Z,-4.08
2022-12-17T17:26:54.970Z,-4.07
2022-12-17T17:29:22.681Z,-4.18
2022-12-17T17:34:38.993Z,-4.04
2022-12-17T17:37:06.201Z,-4.04
2022-12-17T17:39:34.513Z,-4.00
2022-12-17T17:42:02.312Z,-4.02
2022-12-17T17:44:29.851Z,-4.01
2022-12-17T17:46:57.072Z,-3.93
2022-12-17T17:49:25.173Z,-4.02
2022-12-17T17:54:40.503Z,-3.84
2022-12-17T17:57:08.624Z,-4.06
2022-12-17T17:59:36.432Z,-4.10
2022-12-17T18:02:04.053Z,-4.34
2022-12-17T18:04:32.113Z,-4.17
2022-12-17T18:09:46.832Z,-4.15
2022-12-17T18:12:33.238Z,-4.19
2022-12-17T18:15:17.694Z,-4.28
2022-12-17T18:17:47.789Z,-4.26
2022-12-17T18:20:15.809Z,-4.16
2022-12-17T18:22:43.732Z,-3.99
2022-12-17T18:25:11.321Z,-4.22
2022-12-17T18:27:39.188Z,-4.30
2022-12-17T18:30:07.084Z,-4.22
2022-12-17T18:32:34.397Z,-4.00
2022-12-17T18:35:02.234Z,-4.11
2022-12-17T18:37:30.251Z,-4.19
2022-12-17T18:39:57.786Z,-4.06
2022-12-17T18:42:43.485Z,-4.13
2022-12-17T18:45:10.905Z,-4.13
2022-12-17T18:47:38.082Z,-4.16
2022-12-17T18:50:06.226Z,-4.54
2022-12-17T18:52:33.863Z,-4.38
2022-12-17T18:55:01.340Z,-4.31
2022-12-17T18:57:28.647Z,-4.26
2022-12-17T18:59:55.976Z,-4.19
2022-12-17T19:02:23.334Z,-4.35
2022-12-17T19:04:50.530Z,-4.20
2022-12-17T19:07:17.759Z,-4.37
2022-12-17T19:09:44.889Z,-4.34
2022-12-17T19:12:12.085Z,-4.20
2022-12-17T19:14:39.301Z,-4.33
2022-12-17T19:17:06.471Z,-4.52
2022-12-17T19:19:33.971Z,-4.31
2022-12-17T19:22:02.171Z,-4.35
2022-12-17T19:24:29.432Z,-4.29
2022-12-17T19:26:56.862Z,-4.38
2022-12-17T19:29:24.371Z,-4.15
2022-12-17T19:31:51.857Z,-4.29
2022-12-17T19:34:19.821Z,-4.05
2022-12-17T19:36:47.709Z,-3.97
2022-12-17T19:39:17.259Z,-3.86
2022-12-17T19:41:44.656Z,-4.16
2022-12-17T19:44:13.823Z,-4.20
2022-12-17T19:46:41.474Z,-4.27
2022-12-17T19:49:11.211Z,-4.23
2022-12-17T19:51:43.053Z,-4.44
2022-12-17T19:54:13.120Z,-4.65
2022-12-17T19:56:40.353Z,-4.64
2022-12-17T19:59:09.738Z,-4.72
2022-12-17T20:01:43.165Z,-4.68
2022-12-17T20:04:15.940Z,-4.80
2022-12-17T20:06:44.723Z,-4.67
2022-12-17T20:09:12.662Z,-4.69
2022-12-17T20:11:40.361Z,-4.84
2022-12-17T20:14:16.417Z,-4.75
2022-12-17T20:16:48.271Z,-4.54
2022-12-17T20:19:19.037Z,-4.45
2022-12-17T20:21:46.819Z,-4.35
2022-12-17T20:24:15.009Z,-4.70
2022-12-17T20:26:43.239Z,-4.42
2022-12-17T20:29:10.998Z,-4.56
2022-12-17T20:31:38.847Z,-4.63
2022-12-17T20:34:07.360Z,-4.55
2022-12-17T20:36:35.235Z,-4.54
2022-12-17T20:39:02.989Z,-4.57
2022-12-17T20:41:31.486Z,-4.89
2022-12-17T20:44:02.569Z,-4.64
2022-12-17T20:46:29.793Z,-4.68
2022-12-17T20:49:00.265Z,-4.59
2022-12-17T20:51:28.583Z,-4.47
2022-12-17T20:53:57.173Z,-4.51
2022-12-17T20:56:26.974Z,-4.72
2022-12-17T20:59:03.323Z,-4.67
2022-12-17T21:01:32.420Z,-4.52
2022-12-17T21:03:59.841Z,-4.75
2022-12-17T21:06:30.897Z,-4.96
2022-12-17T21:08:58.739Z,-5.07
2022-12-17T21:11:28.362Z,-5.06
2022-12-17T21:13:56.396Z,-5.02
2022-12-17T21:16:29.173Z,-4.97
2022-12-17T21:18:57.615Z,-4.91
2022-12-17T21:21:27.682Z,-4.89
2022-12-17T21:23:56.188Z,-4.69
2022-12-17T21:26:24.946Z,-4.95
2022-12-17T21:28:54.336Z,-4.94
2022-12-17T21:31:23.860Z,-4.79
2022-12-17T21:33:52.807Z,-4.78
2022-12-17T21:36:21.861Z,-4.70
2022-12-17T21:38:50.026Z,-4.55
2022-12-17T21:41:21.352Z,-4.81
2022-12-17T21:43:52.310Z,-4.92
2022-12-17T21:46:19.673Z,-4.66
2022-12-17T21:48:46.914Z,-4.70
2022-12-17T21:51:14.428Z,-4.92
2022-12-17T21:53:44.515Z,-4.88
2022-12-17T21:56:14.389Z,-4.99
2022-12-17T21:58:42.807Z,-4.97
2022-12-17T22:01:25.307Z,-4.91
2022-12-17T22:03:54.443Z,-5.18
2022-12-17T22:06:28.127Z,-5.01
2022-12-17T22:09:10.983Z,-4.86
2022-12-17T22:11:48.240Z,-5.04
2022-12-17T22:14:20.572Z,-4.79
2022-12-17T22:16:49.500Z,-5.03
2022-12-17T22:19:19.089Z,-4.91
2022-12-17T22:21:50.977Z,-4.74
2022-12-17T22:24:21.060Z,-5.05
2022-12-17T22:26:48.670Z,-4.90
2022-12-17T22:29:36.258Z,-4.75
2022-12-17T22:32:22.210Z,-4.79
2022-12-17T22:36:29.001Z,-4.65
2022-12-17T22:39:52.400Z,-4.57
2022-12-17T22:44:48.776Z,-4.39
2022-12-17T22:44:49.154Z,-4.67
2022-12-17T22:46:17.504Z,-4.57
2022-12-17T22:48:44.940Z,-4.89
2022-12-17T22:51:13.550Z,-4.93
2022-12-17T22:53:50.762Z,-4.90
2022-12-17T22:56:31.960Z,-5.04
2022-12-17T22:59:07.329Z,-4.90
2022-12-17T23:01:34.913Z,-4.79
2022-12-17T23:04:03.424Z,-4.80
2022-12-17T23:06:30.655Z,-4.86
2022-12-17T23:08:59.076Z,-5.04
2022-12-17T23:11:28.029Z,-5.10
2022-12-17T23:13:56.194Z,-5.07
2022-12-17T23:16:23.823Z,-5.03
2022-12-17T23:18:51.798Z,-4.84
2022-12-17T23:21:22.351Z,-4.89
2022-12-17T23:23:50.105Z,-5.17
2022-12-17T23:26:32.015Z,-5.20
2022-12-17T23:29:01.979Z,-5.02
2022-12-17T23:31:33.109Z,-5.07
2022-12-17T23:34:00.315Z,-5.06
2022-12-17T23:36:27.598Z,-4.80
2022-12-17T23:38:56.883Z,-4.70
2022-12-17T23:41:27.008Z,-5.00
2022-12-17T23:43:54.921Z,-5.15
2022-12-17T23:46:23.197Z,-5.47
2022-12-17T23:48:51.058Z,-5.35
2022-12-17T23:51:20.364Z,-5.13
2022-12-17T23:53:47.810Z,-5.33
2022-12-17T23:56:23.827Z,-4.96
2022-12-17T23:58:55.971Z,-5.04
